Kane, IL (62054)

7:14 PM CDT on May 24, 2017 (GMT -0500)
North Jerseyville | | Change Station
Active Advisory: Flood Warning

Elev 558 ft 39.15 °N, 90.32 °W | Updated 4 seconds ago

Partly Cloudy
Partly Cloudy
65.1 °F
Feels Like 65.1 °F
N
8.9
Wind Variable Wind from West
Gusts 9.8 mph

Today
High -- | Low -- °F
--% Chance of Precip.
Yesterday
High -- | Low -- °F
Precip. -- in
Pressure 29.56 in
Visibility 10.0 miles
Clouds Few 12000 ft
Dew Point 54 °F
Humidity 68%
Rainfall 0.00 in
Snow Depth Not available.
5:41 AM 8:15 PM
Waning Crescent, 1% visible
METAR KSET 242354Z AUTO 31009KT 10SM FEW120 16/11 A2957 RMK AO2 RAE12 SLP009 P0000 60001 T01610111 10206 20144 53006
Pressure 29.56 in
Visibility 10.0 miles
Clouds Few 12000 ft
Dew Point 54 °F
Humidity 68%
Rainfall 0.00 in
Snow Depth Not available.
5:41 AM 8:15 PM
Waning Crescent, 1% visible
METAR KSET 242354Z AUTO 31009KT 10SM FEW120 16/11 A2957 RMK AO2 RAE12 SLP009 P0000 60001 T01610111 10206 20144 53006

Get Your Daily Forecast Email!

Thanks for signing up!

Be on the lookout for a verification email in your inbox.

You'll start receiving severe weather alerts in your inbox..

×

10-Day Weather Forecast

Almanac

Astronomy

May. 24, 2017 Rise Set
Actual Time
Civil Twilight
Nautical Twilight
Astronomical Twilight
Moon
Length of Visible Light
Length of Day
Tomorrow will be .
, % of the Moon is Illuminated

Today's Extremes

State Highs State Lows

Community

WunderPhotos

Category 6

Welcome to Category 6. This is the collective home for Weather Underground's featured writeups by Dr. Jeff Masters (right), Bob Henson (left), Chris Burt, and other regular contributors.

Nearby

Air Quality

  Air Quality AQ Index Pollutant
Not available.

Snow Depth

Station Depth Elevation

Earthquake Activity

City Distance Mag. Time & Date
Minimum magnitude displayed is 2.5.

Coastal Water Temperatures

Place Temperature

Stations

Nearby Weather Stations

Station Location Temp. Windchill Dew Point Humidity Wind Precip. Elev Updated Type
                   

Watches & Warnings

Flood Warning
Issued: 11:09 AM CDT May. 24, 2017 – National Weather Service

The Flood Warning continues for
the Illinois River at Hardin
* until further notice.
* At 10:30 am Wednesday the stage was 30.8 feet.
* Flood stage is 25.0 feet.
* Minor flooding is forecast.
* The river is forecast to continue falling to a stage of 30.6 feet
by tomorrow morning.



                   Fld latest 7 a.M. Forecast
location stg obs stg 05/25 05/26 05/27 05/28 05/29

Illinois River
Hardin 25.0 30.84 30.6 30.4 30.2 30.0 29.7




Lat... Lon 3952 9064 3952 9052 3898 9048 3891 9054
      3903 9062